sensor_id;sensor_type;location;lat;lon;timestamp;P1;P2;P0
31330;PMS5003;34067;39.548;-76.088;2023-07-22T00:02:08;20;20;
31330;PMS5003;34067;39.548;-76.088;2023-07-22T00:04:36;20;20;
31330;PMS5003;34067;39.548;-76.088;2023-07-22T00:07:04;29;28;
31330;PMS5003;34067;39.548;-76.088;2023-07-22T00:09:32;20;19;
31330;PMS5003;34067;39.548;-76.088;2023-07-22T00:12:00;13;13;
31330;PMS5003;34067;39.548;-76.088;2023-07-22T00:14:28;11;11;
31330;PMS5003;34067;39.548;-76.088;2023-07-22T00:16:56;10;9;
31330;PMS5003;34067;39.548;-76.088;2023-07-22T00:19:24;11;11;
31330;PMS5003;34067;39.548;-76.088;2023-07-22T00:21:52;27;26;
31330;PMS5003;34067;39.548;-76.088;2023-07-22T00:24:19;26;26;
31330;PMS5003;34067;39.548;-76.088;2023-07-22T00:26:47;12;12;
31330;PMS5003;34067;39.548;-76.088;2023-07-22T00:29:15;11;10;
31330;PMS5003;34067;39.548;-76.088;2023-07-22T00:31:43;10;9;
31330;PMS5003;34067;39.548;-76.088;2023-07-22T00:34:11;10;10;
31330;PMS5003;34067;39.548;-76.088;2023-07-22T00:36:38;10;10;
31330;PMS5003;34067;39.548;-76.088;2023-07-22T00:39:06;10;10;
31330;PMS5003;34067;39.548;-76.088;2023-07-22T00:41:34;12;12;
31330;PMS5003;34067;39.548;-76.088;2023-07-22T00:44:01;12;10;
31330;PMS5003;34067;39.548;-76.088;2023-07-22T00:46:29;12;11;
31330;PMS5003;34067;39.548;-76.088;2023-07-22T00:48:57;11;10;
31330;PMS5003;34067;39.548;-76.088;2023-07-22T00:51:25;12;10;
31330;PMS5003;34067;39.548;-76.088;2023-07-22T00:53:53;11;9;
31330;PMS5003;34067;39.548;-76.088;2023-07-22T00:56:21;11;11;
31330;PMS5003;34067;39.548;-76.088;2023-07-22T00:58:49;9;8;
31330;PMS5003;34067;39.548;-76.088;2023-07-22T01:01:18;9;9;
31330;PMS5003;34067;39.548;-76.088;2023-07-22T01:03:46;12;11;
31330;PMS5003;34067;39.548;-76.088;2023-07-22T01:06:14;11;10;
31330;PMS5003;34067;39.548;-76.088;2023-07-22T01:08:42;9;9;
31330;PMS5003;34067;39.548;-76.088;2023-07-22T01:11:10;10;9;
31330;PMS5003;34067;39.548;-76.088;2023-07-22T01:13:37;9;9;
31330;PMS5003;34067;39.548;-76.088;2023-07-22T01:16:05;11;11;
31330;PMS5003;34067;39.548;-76.088;2023-07-22T01:18:34;12;11;
31330;PMS5003;34067;39.548;-76.088;2023-07-22T01:21:01;9;9;
31330;PMS5003;34067;39.548;-76.088;2023-07-22T01:23:30;11;10;
31330;PMS5003;34067;39.548;-76.088;2023-07-22T01:25:58;12;10;
31330;PMS5003;34067;39.548;-76.088;2023-07-22T01:28:27;9;9;
31330;PMS5003;34067;39.548;-76.088;2023-07-22T01:30:54;13;13;
31330;PMS5003;34067;39.548;-76.088;2023-07-22T01:33:22;12;12;
31330;PMS5003;34067;39.548;-76.088;2023-07-22T01:35:50;9;9;
31330;PMS5003;34067;39.548;-76.088;2023-07-22T01:38:18;13;10;
31330;PMS5003;34067;39.548;-76.088;2023-07-22T01:40:47;11;10;
31330;PMS5003;34067;39.548;-76.088;2023-07-22T01:43:15;17;15;
31330;PMS5003;34067;39.548;-76.088;2023-07-22T01:45:43;11;11;
31330;PMS5003;34067;39.548;-76.088;2023-07-22T01:48:10;16;15;
31330;PMS5003;34067;39.548;-76.088;2023-07-22T01:50:38;14;13;
31330;PMS5003;34067;39.548;-76.088;2023-07-22T01:53:06;14;13;
31330;PMS5003;34067;39.548;-76.088;2023-07-22T01:55:34;10;9;
31330;PMS5003;34067;39.548;-76.088;2023-07-22T01:58:02;12;12;
31330;PMS5003;34067;39.548;-76.088;2023-07-22T02:00:30;12;11;
31330;PMS5003;34067;39.548;-76.088;2023-07-22T02:02:58;10;10;
31330;PMS5003;34067;39.548;-76.088;2023-07-22T02:05:26;9;9;
31330;PMS5003;34067;39.548;-76.088;2023-07-22T02:07:53;20;18;
31330;PMS5003;34067;39.548;-76.088;2023-07-22T02:10:21;12;11;
31330;PMS5003;34067;39.548;-76.088;2023-07-22T02:12:50;17;16;
31330;PMS5003;34067;39.548;-76.088;2023-07-22T02:15:19;12;11;
31330;PMS5003;34067;39.548;-76.088;2023-07-22T02:17:46;9;9;
31330;PMS5003;34067;39.548;-76.088;2023-07-22T02:20:14;11;10;
31330;PMS5003;34067;39.548;-76.088;2023-07-22T02:22:42;9;9;
31330;PMS5003;34067;39.548;-76.088;2023-07-22T02:25:10;11;11;
31330;PMS5003;34067;39.548;-76.088;2023-07-22T02:27:38;12;10;
31330;PMS5003;34067;39.548;-76.088;2023-07-22T02:30:06;10;9;
31330;PMS5003;34067;39.548;-76.088;2023-07-22T02:32:34;9;9;
31330;PMS5003;34067;39.548;-76.088;2023-07-22T02:35:02;11;10;
31330;PMS5003;34067;39.548;-76.088;2023-07-22T02:37:31;9;9;
31330;PMS5003;34067;39.548;-76.088;2023-07-22T02:39:59;8;8;
31330;PMS5003;34067;39.548;-76.088;2023-07-22T02:42:27;8;8;
31330;PMS5003;34067;39.548;-76.088;2023-07-22T02:44:55;8;8;
31330;PMS5003;34067;39.548;-76.088;2023-07-22T02:47:22;8;8;
31330;PMS5003;34067;39.548;-76.088;2023-07-22T02:49:50;10;10;
31330;PMS5003;34067;39.548;-76.088;2023-07-22T02:52:18;8;8;
31330;PMS5003;34067;39.548;-76.088;2023-07-22T02:55:03;10;9;
31330;PMS5003;34067;39.548;-76.088;2023-07-22T02:57:33;10;10;
31330;PMS5003;34067;39.548;-76.088;2023-07-22T03:00:02;11;10;
31330;PMS5003;34067;39.548;-76.088;2023-07-22T03:02:31;11;11;
31330;PMS5003;34067;39.548;-76.088;2023-07-22T03:04:58;12;11;
31330;PMS5003;34067;39.548;-76.088;2023-07-22T03:07:26;13;13;
31330;PMS5003;34067;39.548;-76.088;2023-07-22T03:09:54;20;20;
31330;PMS5003;34067;39.548;-76.088;2023-07-22T03:12:22;28;28;
31330;PMS5003;34067;39.548;-76.088;2023-07-22T03:14:50;31;31;
31330;PMS5003;34067;39.548;-76.088;2023-07-22T03:17:18;34;33;
31330;PMS5003;34067;39.548;-76.088;2023-07-22T03:19:46;35;35;
31330;PMS5003;34067;39.548;-76.088;2023-07-22T03:22:14;42;41;
31330;PMS5003;34067;39.548;-76.088;2023-07-22T03:24:43;40;40;
31330;PMS5003;34067;39.548;-76.088;2023-07-22T03:27:12;15;15;
31330;PMS5003;34067;39.548;-76.088;2023-07-22T03:29:41;38;38;
31330;PMS5003;34067;39.548;-76.088;2023-07-22T03:32:09;31;30;
31330;PMS5003;34067;39.548;-76.088;2023-07-22T03:34:36;26;24;
31330;PMS5003;34067;39.548;-76.088;2023-07-22T03:37:04;33;33;
31330;PMS5003;34067;39.548;-76.088;2023-07-22T03:39:32;29;29;
31330;PMS5003;34067;39.548;-76.088;2023-07-22T03:42:00;60;58;
31330;PMS5003;34067;39.548;-76.088;2023-07-22T03:44:27;40;40;
31330;PMS5003;34067;39.548;-76.088;2023-07-22T03:46:55;49;48;
31330;PMS5003;34067;39.548;-76.088;2023-07-22T03:49:23;42;42;
31330;PMS5003;34067;39.548;-76.088;2023-07-22T03:51:51;60;60;
31330;PMS5003;34067;39.548;-76.088;2023-07-22T03:54:18;39;37;
31330;PMS5003;34067;39.548;-76.088;2023-07-22T03:56:46;11;11;
31330;PMS5003;34067;39.548;-76.088;2023-07-22T03:59:14;23;23;
31330;PMS5003;34067;39.548;-76.088;2023-07-22T04:01:43;15;15;
31330;PMS5003;34067;39.548;-76.088;2023-07-22T04:04:10;41;41;
31330;PMS5003;34067;39.548;-76.088;2023-07-22T04:06:38;25;25;
31330;PMS5003;34067;39.548;-76.088;2023-07-22T04:09:06;17;17;
31330;PMS5003;34067;39.548;-76.088;2023-07-22T04:11:35;37;37;
31330;PMS5003;34067;39.548;-76.088;2023-07-22T04:14:03;53;53;
31330;PMS5003;34067;39.548;-76.088;2023-07-22T04:16:31;44;44;
31330;PMS5003;34067;39.548;-76.088;2023-07-22T04:18:59;33;33;
31330;PMS5003;34067;39.548;-76.088;2023-07-22T04:21:27;64;63;
31330;PMS5003;34067;39.548;-76.088;2023-07-22T04:23:54;102;100;
31330;PMS5003;34067;39.548;-76.088;2023-07-22T04:26:22;88;85;
31330;PMS5003;34067;39.548;-76.088;2023-07-22T04:28:50;74;73;
31330;PMS5003;34067;39.548;-76.088;2023-07-22T04:31:18;10;10;
31330;PMS5003;34067;39.548;-76.088;2023-07-22T04:33:46;11;9;
31330;PMS5003;34067;39.548;-76.088;2023-07-22T04:36:14;9;9;
31330;PMS5003;34067;39.548;-76.088;2023-07-22T04:38:42;10;9;
31330;PMS5003;34067;39.548;-76.088;2023-07-22T04:41:09;7;6;
31330;PMS5003;34067;39.548;-76.088;2023-07-22T04:43:37;11;10;
31330;PMS5003;34067;39.548;-76.088;2023-07-22T04:46:05;8;7;
31330;PMS5003;34067;39.548;-76.088;2023-07-22T04:48:33;11;10;
31330;PMS5003;34067;39.548;-76.088;2023-07-22T04:51:01;10;9;
31330;PMS5003;34067;39.548;-76.088;2023-07-22T04:53:29;8;8;
31330;PMS5003;34067;39.548;-76.088;2023-07-22T04:55:57;9;9;
31330;PMS5003;34067;39.548;-76.088;2023-07-22T04:58:25;10;8;
31330;PMS5003;34067;39.548;-76.088;2023-07-22T05:03:10;7;7;
31330;PMS5003;34067;39.548;-76.088;2023-07-22T05:05:38;9;9;
31330;PMS5003;34067;39.548;-76.088;2023-07-22T05:08:05;12;11;
31330;PMS5003;34067;39.548;-76.088;2023-07-22T05:10:33;8;8;
31330;PMS5003;34067;39.548;-76.088;2023-07-22T05:13:01;10;9;
31330;PMS5003;34067;39.548;-76.088;2023-07-22T05:15:29;8;8;
31330;PMS5003;34067;39.548;-76.088;2023-07-22T05:17:56;7;7;
31330;PMS5003;34067;39.548;-76.088;2023-07-22T05:20:24;12;9;
31330;PMS5003;34067;39.548;-76.088;2023-07-22T05:22:52;9;9;
31330;PMS5003;34067;39.548;-76.088;2023-07-22T05:25:20;8;8;
31330;PMS5003;34067;39.548;-76.088;2023-07-22T05:27:49;10;9;
31330;PMS5003;34067;39.548;-76.088;2023-07-22T05:30:17;7;7;
31330;PMS5003;34067;39.548;-76.088;2023-07-22T05:32:45;7;7;
31330;PMS5003;34067;39.548;-76.088;2023-07-22T05:35:13;10;9;
31330;PMS5003;34067;39.548;-76.088;2023-07-22T05:37:41;9;8;
31330;PMS5003;34067;39.548;-76.088;2023-07-22T05:40:09;11;10;
31330;PMS5003;34067;39.548;-76.088;2023-07-22T05:42:37;9;9;
31330;PMS5003;34067;39.548;-76.088;2023-07-22T05:45:05;8;8;
31330;PMS5003;34067;39.548;-76.088;2023-07-22T05:47:34;10;10;
31330;PMS5003;34067;39.548;-76.088;2023-07-22T05:50:03;10;9;
31330;PMS5003;34067;39.548;-76.088;2023-07-22T05:52:31;8;8;
31330;PMS5003;34067;39.548;-76.088;2023-07-22T05:54:59;10;10;
31330;PMS5003;34067;39.548;-76.088;2023-07-22T05:57:27;8;7;
31330;PMS5003;34067;39.548;-76.088;2023-07-22T05:59:55;8;8;
31330;PMS5003;34067;39.548;-76.088;2023-07-22T06:02:23;9;9;
31330;PMS5003;34067;39.548;-76.088;2023-07-22T06:04:50;8;8;
31330;PMS5003;34067;39.548;-76.088;2023-07-22T06:07:18;7;7;
31330;PMS5003;34067;39.548;-76.088;2023-07-22T06:09:46;11;9;
31330;PMS5003;34067;39.548;-76.088;2023-07-22T06:12:13;10;10;
31330;PMS5003;34067;39.548;-76.088;2023-07-22T06:14:41;12;10;
31330;PMS5003;34067;39.548;-76.088;2023-07-22T06:17:09;12;12;
31330;PMS5003;34067;39.548;-76.088;2023-07-22T06:19:37;14;13;
31330;PMS5003;34067;39.548;-76.088;2023-07-22T06:22:05;18;17;
31330;PMS5003;34067;39.548;-76.088;2023-07-22T06:24:33;7;7;
31330;PMS5003;34067;39.548;-76.088;2023-07-22T06:27:00;14;14;
31330;PMS5003;34067;39.548;-76.088;2023-07-22T06:29:28;12;11;
31330;PMS5003;34067;39.548;-76.088;2023-07-22T06:31:56;23;22;
31330;PMS5003;34067;39.548;-76.088;2023-07-22T06:34:24;22;22;
31330;PMS5003;34067;39.548;-76.088;2023-07-22T06:36:52;22;22;
31330;PMS5003;34067;39.548;-76.088;2023-07-22T06:39:20;19;19;
31330;PMS5003;34067;39.548;-76.088;2023-07-22T06:41:48;19;19;
31330;PMS5003;34067;39.548;-76.088;2023-07-22T06:44:16;26;26;
31330;PMS5003;34067;39.548;-76.088;2023-07-22T06:46:44;44;43;
31330;PMS5003;34067;39.548;-76.088;2023-07-22T06:49:12;23;22;
31330;PMS5003;34067;39.548;-76.088;2023-07-22T06:51:40;20;19;
31330;PMS5003;34067;39.548;-76.088;2023-07-22T06:54:08;30;29;
31330;PMS5003;34067;39.548;-76.088;2023-07-22T06:56:36;34;34;
31330;PMS5003;34067;39.548;-76.088;2023-07-22T06:59:04;19;19;
31330;PMS5003;34067;39.548;-76.088;2023-07-22T07:01:32;13;12;
31330;PMS5003;34067;39.548;-76.088;2023-07-22T07:04:00;8;8;
31330;PMS5003;34067;39.548;-76.088;2023-07-22T07:06:28;9;9;
31330;PMS5003;34067;39.548;-76.088;2023-07-22T07:08:58;13;12;
31330;PMS5003;34067;39.548;-76.088;2023-07-22T07:11:26;10;8;
31330;PMS5003;34067;39.548;-76.088;2023-07-22T07:13:55;7;7;
31330;PMS5003;34067;39.548;-76.088;2023-07-22T07:16:23;12;10;
31330;PMS5003;34067;39.548;-76.088;2023-07-22T07:18:53;8;8;
31330;PMS5003;34067;39.548;-76.088;2023-07-22T07:21:21;10;9;
31330;PMS5003;34067;39.548;-76.088;2023-07-22T07:23:50;10;9;
31330;PMS5003;34067;39.548;-76.088;2023-07-22T07:26:20;9;8;
31330;PMS5003;34067;39.548;-76.088;2023-07-22T07:28:48;9;9;
31330;PMS5003;34067;39.548;-76.088;2023-07-22T07:31:16;10;8;
31330;PMS5003;34067;39.548;-76.088;2023-07-22T07:33:44;10;9;
31330;PMS5003;34067;39.548;-76.088;2023-07-22T07:36:12;9;9;
31330;PMS5003;34067;39.548;-76.088;2023-07-22T07:38:40;9;8;
31330;PMS5003;34067;39.548;-76.088;2023-07-22T07:41:08;10;9;
31330;PMS5003;34067;39.548;-76.088;2023-07-22T07:43:36;12;9;
31330;PMS5003;34067;39.548;-76.088;2023-07-22T07:46:13;8;8;
31330;PMS5003;34067;39.548;-76.088;2023-07-22T07:48:44;10;10;
31330;PMS5003;34067;39.548;-76.088;2023-07-22T07:51:13;8;8;
31330;PMS5003;34067;39.548;-76.088;2023-07-22T07:53:41;11;11;
31330;PMS5003;34067;39.548;-76.088;2023-07-22T07:56:11;11;10;
31330;PMS5003;34067;39.548;-76.088;2023-07-22T07:58:39;10;9;
31330;PMS5003;34067;39.548;-76.088;2023-07-22T08:01:07;11;10;
31330;PMS5003;34067;39.548;-76.088;2023-07-22T08:03:35;8;7;
31330;PMS5003;34067;39.548;-76.088;2023-07-22T08:06:04;9;8;
31330;PMS5003;34067;39.548;-76.088;2023-07-22T08:08:32;10;9;
31330;PMS5003;34067;39.548;-76.088;2023-07-22T08:11:01;9;9;
31330;PMS5003;34067;39.548;-76.088;2023-07-22T08:13:30;12;11;
31330;PMS5003;34067;39.548;-76.088;2023-07-22T08:15:59;11;10;
31330;PMS5003;34067;39.548;-76.088;2023-07-22T08:18:28;10;9;
31330;PMS5003;34067;39.548;-76.088;2023-07-22T08:20:55;11;10;
31330;PMS5003;34067;39.548;-76.088;2023-07-22T08:23:24;10;10;
31330;PMS5003;34067;39.548;-76.088;2023-07-22T08:25:52;10;10;
31330;PMS5003;34067;39.548;-76.088;2023-07-22T08:28:20;10;10;
31330;PMS5003;34067;39.548;-76.088;2023-07-22T08:30:48;10;10;
31330;PMS5003;34067;39.548;-76.088;2023-07-22T08:33:16;10;8;
31330;PMS5003;34067;39.548;-76.088;2023-07-22T08:35:44;9;8;
31330;PMS5003;34067;39.548;-76.088;2023-07-22T08:38:11;11;10;
31330;PMS5003;34067;39.548;-76.088;2023-07-22T08:40:40;9;8;
31330;PMS5003;34067;39.548;-76.088;2023-07-22T08:43:09;9;7;
31330;PMS5003;34067;39.548;-76.088;2023-07-22T08:45:38;10;9;
31330;PMS5003;34067;39.548;-76.088;2023-07-22T08:48:08;11;10;
31330;PMS5003;34067;39.548;-76.088;2023-07-22T08:50:39;8;8;
31330;PMS5003;34067;39.548;-76.088;2023-07-22T08:53:12;11;10;
31330;PMS5003;34067;39.548;-76.088;2023-07-22T08:55:41;9;9;
31330;PMS5003;34067;39.548;-76.088;2023-07-22T08:58:09;10;10;
31330;PMS5003;34067;39.548;-76.088;2023-07-22T09:00:38;9;9;
31330;PMS5003;34067;39.548;-76.088;2023-07-22T09:03:06;9;9;
31330;PMS5003;34067;39.548;-76.088;2023-07-22T09:05:36;10;10;
31330;PMS5003;34067;39.548;-76.088;2023-07-22T09:08:04;11;9;
31330;PMS5003;34067;39.548;-76.088;2023-07-22T09:10:35;10;10;
31330;PMS5003;34067;39.548;-76.088;2023-07-22T09:13:04;8;8;
31330;PMS5003;34067;39.548;-76.088;2023-07-22T09:15:34;9;8;
31330;PMS5003;34067;39.548;-76.088;2023-07-22T09:18:03;7;7;
31330;PMS5003;34067;39.548;-76.088;2023-07-22T09:20:31;7;7;
31330;PMS5003;34067;39.548;-76.088;2023-07-22T09:22:59;9;9;
31330;PMS5003;34067;39.548;-76.088;2023-07-22T09:25:28;9;9;
31330;PMS5003;34067;39.548;-76.088;2023-07-22T09:27:58;8;7;
31330;PMS5003;34067;39.548;-76.088;2023-07-22T09:30:27;10;10;
31330;PMS5003;34067;39.548;-76.088;2023-07-22T09:32:56;10;9;
31330;PMS5003;34067;39.548;-76.088;2023-07-22T09:35:26;9;9;
31330;PMS5003;34067;39.548;-76.088;2023-07-22T09:37:55;9;9;
31330;PMS5003;34067;39.548;-76.088;2023-07-22T09:40:24;9;8;
31330;PMS5003;34067;39.548;-76.088;2023-07-22T09:42:54;8;8;
31330;PMS5003;34067;39.548;-76.088;2023-07-22T09:45:24;12;11;
31330;PMS5003;34067;39.548;-76.088;2023-07-22T09:47:53;11;11;
31330;PMS5003;34067;39.548;-76.088;2023-07-22T09:50:22;9;9;
31330;PMS5003;34067;39.548;-76.088;2023-07-22T09:52:51;10;10;
31330;PMS5003;34067;39.548;-76.088;2023-07-22T09:55:21;9;9;
31330;PMS5003;34067;39.548;-76.088;2023-07-22T09:57:52;8;8;
31330;PMS5003;34067;39.548;-76.088;2023-07-22T10:00:23;11;10;
31330;PMS5003;34067;39.548;-76.088;2023-07-22T10:02:52;9;9;
31330;PMS5003;34067;39.548;-76.088;2023-07-22T10:05:22;10;10;
31330;PMS5003;34067;39.548;-76.088;2023-07-22T10:07:53;8;8;
31330;PMS5003;34067;39.548;-76.088;2023-07-22T10:11:20;12;10;
31330;PMS5003;34067;39.548;-76.088;2023-07-22T10:13:52;12;11;
31330;PMS5003;34067;39.548;-76.088;2023-07-22T10:16:22;13;11;
31330;PMS5003;34067;39.548;-76.088;2023-07-22T10:18:50;11;10;
31330;PMS5003;34067;39.548;-76.088;2023-07-22T10:21:19;13;11;
31330;PMS5003;34067;39.548;-76.088;2023-07-22T10:23:49;11;9;
31330;PMS5003;34067;39.548;-76.088;2023-07-22T10:26:18;12;11;
31330;PMS5003;34067;39.548;-76.088;2023-07-22T10:28:47;12;12;
31330;PMS5003;34067;39.548;-76.088;2023-07-22T10:31:15;10;10;
31330;PMS5003;34067;39.548;-76.088;2023-07-22T10:33:43;10;9;
31330;PMS5003;34067;39.548;-76.088;2023-07-22T10:36:13;11;11;
31330;PMS5003;34067;39.548;-76.088;2023-07-22T10:38:42;12;11;
31330;PMS5003;34067;39.548;-76.088;2023-07-22T10:41:11;9;9;
31330;PMS5003;34067;39.548;-76.088;2023-07-22T10:43:41;10;10;
31330;PMS5003;34067;39.548;-76.088;2023-07-22T10:46:10;12;11;
31330;PMS5003;34067;39.548;-76.088;2023-07-22T10:48:39;13;10;
31330;PMS5003;34067;39.548;-76.088;2023-07-22T10:51:10;11;10;
31330;PMS5003;34067;39.548;-76.088;2023-07-22T10:53:40;13;13;
31330;PMS5003;34067;39.548;-76.088;2023-07-22T10:56:13;12;11;
31330;PMS5003;34067;39.548;-76.088;2023-07-22T10:58:55;14;13;
31330;PMS5003;34067;39.548;-76.088;2023-07-22T11:01:30;12;11;
31330;PMS5003;34067;39.548;-76.088;2023-07-22T11:04:14;13;13;
31330;PMS5003;34067;39.548;-76.088;2023-07-22T11:06:53;13;12;
31330;PMS5003;34067;39.548;-76.088;2023-07-22T11:09:38;10;10;
31330;PMS5003;34067;39.548;-76.088;2023-07-22T11:12:07;12;12;
31330;PMS5003;34067;39.548;-76.088;2023-07-22T11:14:38;15;14;
31330;PMS5003;34067;39.548;-76.088;2023-07-22T11:17:11;11;10;
31330;PMS5003;34067;39.548;-76.088;2023-07-22T11:19:40;15;12;
31330;PMS5003;34067;39.548;-76.088;2023-07-22T11:22:09;10;8;
31330;PMS5003;34067;39.548;-76.088;2023-07-22T11:24:37;10;10;
31330;PMS5003;34067;39.548;-76.088;2023-07-22T11:27:06;9;9;
31330;PMS5003;34067;39.548;-76.088;2023-07-22T11:29:34;11;11;
31330;PMS5003;34067;39.548;-76.088;2023-07-22T11:32:03;12;11;
31330;PMS5003;34067;39.548;-76.088;2023-07-22T11:34:31;13;10;
31330;PMS5003;34067;39.548;-76.088;2023-07-22T11:36:59;13;11;
31330;PMS5003;34067;39.548;-76.088;2023-07-22T11:39:27;11;11;
31330;PMS5003;34067;39.548;-76.088;2023-07-22T11:41:55;10;8;
31330;PMS5003;34067;39.548;-76.088;2023-07-22T11:44:26;15;12;
31330;PMS5003;34067;39.548;-76.088;2023-07-22T11:46:56;15;13;
31330;PMS5003;34067;39.548;-76.088;2023-07-22T11:49:26;11;11;
31330;PMS5003;34067;39.548;-76.088;2023-07-22T11:51:56;10;10;
31330;PMS5003;34067;39.548;-76.088;2023-07-22T11:54:25;11;11;
31330;PMS5003;34067;39.548;-76.088;2023-07-22T11:56:54;13;11;
31330;PMS5003;34067;39.548;-76.088;2023-07-22T11:59:40;11;11;
31330;PMS5003;34067;39.548;-76.088;2023-07-22T12:02:12;14;12;
31330;PMS5003;34067;39.548;-76.088;2023-07-22T12:04:40;13;13;
31330;PMS5003;34067;39.548;-76.088;2023-07-22T12:07:21;13;12;
31330;PMS5003;34067;39.548;-76.088;2023-07-22T12:09:51;13;13;
31330;PMS5003;34067;39.548;-76.088;2023-07-22T12:12:19;12;12;
31330;PMS5003;34067;39.548;-76.088;2023-07-22T12:14:47;12;12;
31330;PMS5003;34067;39.548;-76.088;2023-07-22T12:17:15;13;12;
31330;PMS5003;34067;39.548;-76.088;2023-07-22T12:19:51;13;11;
31330;PMS5003;34067;39.548;-76.088;2023-07-22T12:22:19;12;12;
31330;PMS5003;34067;39.548;-76.088;2023-07-22T12:24:47;11;10;
31330;PMS5003;34067;39.548;-76.088;2023-07-22T12:27:14;11;11;
31330;PMS5003;34067;39.548;-76.088;2023-07-22T12:29:42;8;8;
31330;PMS5003;34067;39.548;-76.088;2023-07-22T12:32:10;9;8;
31330;PMS5003;34067;39.548;-76.088;2023-07-22T12:34:38;10;10;
31330;PMS5003;34067;39.548;-76.088;2023-07-22T12:37:06;8;8;
31330;PMS5003;34067;39.548;-76.088;2023-07-22T12:39:34;10;10;
31330;PMS5003;34067;39.548;-76.088;2023-07-22T12:42:02;10;10;
31330;PMS5003;34067;39.548;-76.088;2023-07-22T12:44:30;10;10;
31330;PMS5003;34067;39.548;-76.088;2023-07-22T12:46:58;8;8;
31330;PMS5003;34067;39.548;-76.088;2023-07-22T12:49:26;11;9;
31330;PMS5003;34067;39.548;-76.088;2023-07-22T12:51:53;13;11;
31330;PMS5003;34067;39.548;-76.088;2023-07-22T12:54:21;10;9;
31330;PMS5003;34067;39.548;-76.088;2023-07-22T12:56:49;10;10;
31330;PMS5003;34067;39.548;-76.088;2023-07-22T12:59:17;10;10;
31330;PMS5003;34067;39.548;-76.088;2023-07-22T13:01:44;9;7;
31330;PMS5003;34067;39.548;-76.088;2023-07-22T13:04:12;10;9;
31330;PMS5003;34067;39.548;-76.088;2023-07-22T13:06:40;11;10;
31330;PMS5003;34067;39.548;-76.088;2023-07-22T13:09:08;10;9;
31330;PMS5003;34067;39.548;-76.088;2023-07-22T13:11:36;9;9;
31330;PMS5003;34067;39.548;-76.088;2023-07-22T13:14:04;13;13;
31330;PMS5003;34067;39.548;-76.088;2023-07-22T13:16:31;10;10;
31330;PMS5003;34067;39.548;-76.088;2023-07-22T13:18:59;8;8;
31330;PMS5003;34067;39.548;-76.088;2023-07-22T13:21:27;11;10;
31330;PMS5003;34067;39.548;-76.088;2023-07-22T13:23:55;9;9;
31330;PMS5003;34067;39.548;-76.088;2023-07-22T13:26:22;10;10;
31330;PMS5003;34067;39.548;-76.088;2023-07-22T13:28:50;11;11;
31330;PMS5003;34067;39.548;-76.088;2023-07-22T13:31:19;10;9;
31330;PMS5003;34067;39.548;-76.088;2023-07-22T13:33:47;9;8;
31330;PMS5003;34067;39.548;-76.088;2023-07-22T13:36:15;8;7;
31330;PMS5003;34067;39.548;-76.088;2023-07-22T13:38:42;9;9;
31330;PMS5003;34067;39.548;-76.088;2023-07-22T13:41:10;8;7;
31330;PMS5003;34067;39.548;-76.088;2023-07-22T13:43:38;8;8;
31330;PMS5003;34067;39.548;-76.088;2023-07-22T13:46:06;9;8;
31330;PMS5003;34067;39.548;-76.088;2023-07-22T13:48:34;7;7;
31330;PMS5003;34067;39.548;-76.088;2023-07-22T13:51:02;9;7;
31330;PMS5003;34067;39.548;-76.088;2023-07-22T13:53:30;8;7;
31330;PMS5003;34067;39.548;-76.088;2023-07-22T13:55:58;8;7;
31330;PMS5003;34067;39.548;-76.088;2023-07-22T13:58:26;6;6;
31330;PMS5003;34067;39.548;-76.088;2023-07-22T14:00:54;7;6;
31330;PMS5003;34067;39.548;-76.088;2023-07-22T14:03:22;7;7;
31330;PMS5003;34067;39.548;-76.088;2023-07-22T14:05:50;7;6;
31330;PMS5003;34067;39.548;-76.088;2023-07-22T14:08:18;6;6;
31330;PMS5003;34067;39.548;-76.088;2023-07-22T14:10:45;6;6;
31330;PMS5003;34067;39.548;-76.088;2023-07-22T14:13:13;6;6;
31330;PMS5003;34067;39.548;-76.088;2023-07-22T14:15:41;8;8;
31330;PMS5003;34067;39.548;-76.088;2023-07-22T14:18:09;8;7;
31330;PMS5003;34067;39.548;-76.088;2023-07-22T14:20:37;11;10;
31330;PMS5003;34067;39.548;-76.088;2023-07-22T14:23:04;8;8;
31330;PMS5003;34067;39.548;-76.088;2023-07-22T14:25:32;8;7;
31330;PMS5003;34067;39.548;-76.088;2023-07-22T14:28:00;8;7;
31330;PMS5003;34067;39.548;-76.088;2023-07-22T14:48:37;7;7;
31330;PMS5003;34067;39.548;-76.088;2023-07-22T14:51:04;13;10;
31330;PMS5003;34067;39.548;-76.088;2023-07-22T14:53:33;14;14;
31330;PMS5003;34067;39.548;-76.088;2023-07-22T14:56:01;8;7;
31330;PMS5003;34067;39.548;-76.088;2023-07-22T14:58:28;10;9;
31330;PMS5003;34067;39.548;-76.088;2023-07-22T15:00:56;11;11;
31330;PMS5003;34067;39.548;-76.088;2023-07-22T15:03:24;8;8;
31330;PMS5003;34067;39.548;-76.088;2023-07-22T15:05:52;11;11;
31330;PMS5003;34067;39.548;-76.088;2023-07-22T15:08:20;12;11;
31330;PMS5003;34067;39.548;-76.088;2023-07-22T15:10:48;8;7;
31330;PMS5003;34067;39.548;-76.088;2023-07-22T15:13:16;12;11;
31330;PMS5003;34067;39.548;-76.088;2023-07-22T15:15:43;12;10;
31330;PMS5003;34067;39.548;-76.088;2023-07-22T15:18:11;8;8;
31330;PMS5003;34067;39.548;-76.088;2023-07-22T15:20:39;9;9;
31330;PMS5003;34067;39.548;-76.088;2023-07-22T15:23:07;10;9;
31330;PMS5003;34067;39.548;-76.088;2023-07-22T15:25:35;10;8;
31330;PMS5003;34067;39.548;-76.088;2023-07-22T15:28:03;11;9;
31330;PMS5003;34067;39.548;-76.088;2023-07-22T15:30:30;10;9;
31330;PMS5003;34067;39.548;-76.088;2023-07-22T15:32:58;9;9;
31330;PMS5003;34067;39.548;-76.088;2023-07-22T15:35:26;9;9;
31330;PMS5003;34067;39.548;-76.088;2023-07-22T15:37:54;13;12;
31330;PMS5003;34067;39.548;-76.088;2023-07-22T15:40:22;8;8;
31330;PMS5003;34067;39.548;-76.088;2023-07-22T15:42:49;8;8;
31330;PMS5003;34067;39.548;-76.088;2023-07-22T15:45:17;9;7;
31330;PMS5003;34067;39.548;-76.088;2023-07-22T15:47:45;11;9;
31330;PMS5003;34067;39.548;-76.088;2023-07-22T15:50:13;12;11;
31330;PMS5003;34067;39.548;-76.088;2023-07-22T15:52:41;8;8;
31330;PMS5003;34067;39.548;-76.088;2023-07-22T15:55:09;10;9;
31330;PMS5003;34067;39.548;-76.088;2023-07-22T15:57:37;10;9;
31330;PMS5003;34067;39.548;-76.088;2023-07-22T16:00:05;10;7;
31330;PMS5003;34067;39.548;-76.088;2023-07-22T16:02:33;10;9;
31330;PMS5003;34067;39.548;-76.088;2023-07-22T16:05:01;12;10;
31330;PMS5003;34067;39.548;-76.088;2023-07-22T16:07:29;11;11;
31330;PMS5003;34067;39.548;-76.088;2023-07-22T16:09:57;12;11;
31330;PMS5003;34067;39.548;-76.088;2023-07-22T16:12:25;10;10;
31330;PMS5003;34067;39.548;-76.088;2023-07-22T16:14:54;10;8;
31330;PMS5003;34067;39.548;-76.088;2023-07-22T16:17:22;8;8;
31330;PMS5003;34067;39.548;-76.088;2023-07-22T16:19:50;9;8;
31330;PMS5003;34067;39.548;-76.088;2023-07-22T16:22:17;8;8;
31330;PMS5003;34067;39.548;-76.088;2023-07-22T16:24:45;10;9;
31330;PMS5003;34067;39.548;-76.088;2023-07-22T16:27:13;9;8;
31330;PMS5003;34067;39.548;-76.088;2023-07-22T16:29:40;7;7;